sensor_id;sensor_type;location;lat;lon;timestamp;temperature;humidity
74368;DHT22;64991;41.090;-8.118;2023-12-20T00:00:41;14.10;71.00
74368;DHT22;64991;41.090;-8.118;2023-12-20T00:05:47;14.10;71.10
74368;DHT22;64991;41.090;-8.118;2023-12-20T00:10:50;14.10;71.30
74368;DHT22;64991;41.090;-8.118;2023-12-20T00:15:54;14.20;71.10
74368;DHT22;64991;41.090;-8.118;2023-12-20T00:20:59;14.10;71.50
74368;DHT22;64991;41.090;-8.118;2023-12-20T00:26:03;14.10;71.50
74368;DHT22;64991;41.090;-8.118;2023-12-20T00:31:06;14.10;71.40
74368;DHT22;64991;41.090;-8.118;2023-12-20T00:36:12;14.10;71.50
74368;DHT22;64991;41.090;-8.118;2023-12-20T00:41:16;14.10;71.50
74368;DHT22;64991;41.090;-8.118;2023-12-20T00:46:19;14.10;71.40
74368;DHT22;64991;41.090;-8.118;2023-12-20T00:51:24;14.20;71.30
74368;DHT22;64991;41.090;-8.118;2023-12-20T00:56:28;14.10;71.70
74368;DHT22;64991;41.090;-8.118;2023-12-20T01:01:32;14.10;71.70
74368;DHT22;64991;41.090;-8.118;2023-12-20T01:06:37;14.00;71.70
74368;DHT22;64991;41.090;-8.118;2023-12-20T01:11:41;14.10;71.70
74368;DHT22;64991;41.090;-8.118;2023-12-20T01:16:45;14.10;71.60
74368;DHT22;64991;41.090;-8.118;2023-12-20T01:21:50;14.10;71.80
74368;DHT22;64991;41.090;-8.118;2023-12-20T01:26:54;14.10;71.80
74368;DHT22;64991;41.090;-8.118;2023-12-20T01:31:58;14.10;71.70
74368;DHT22;64991;41.090;-8.118;2023-12-20T01:37:03;14.10;72.10
74368;DHT22;64991;41.090;-8.118;2023-12-20T01:42:07;14.00;72.00
74368;DHT22;64991;41.090;-8.118;2023-12-20T01:47:11;14.10;72.30
74368;DHT22;64991;41.090;-8.118;2023-12-20T01:52:16;14.10;72.10
74368;DHT22;64991;41.090;-8.118;2023-12-20T01:57:22;14.00;72.20
74368;DHT22;64991;41.090;-8.118;2023-12-20T02:02:26;14.00;72.40
74368;DHT22;64991;41.090;-8.118;2023-12-20T02:07:32;14.00;72.10
74368;DHT22;64991;41.090;-8.118;2023-12-20T02:12:37;14.00;72.30
74368;DHT22;64991;41.090;-8.118;2023-12-20T02:17:40;14.10;72.20
74368;DHT22;64991;41.090;-8.118;2023-12-20T02:22:46;14.00;72.20
74368;DHT22;64991;41.090;-8.118;2023-12-20T02:27:50;14.00;72.30
74368;DHT22;64991;41.090;-8.118;2023-12-20T02:32:54;14.10;72.10
74368;DHT22;64991;41.090;-8.118;2023-12-20T02:38:01;14.00;72.40
74368;DHT22;64991;41.090;-8.118;2023-12-20T02:43:05;14.00;72.50
74368;DHT22;64991;41.090;-8.118;2023-12-20T02:48:09;14.10;72.30
74368;DHT22;64991;41.090;-8.118;2023-12-20T02:53:14;14.00;72.40
74368;DHT22;64991;41.090;-8.118;2023-12-20T02:58:18;14.00;72.40
74368;DHT22;64991;41.090;-8.118;2023-12-20T03:03:22;14.10;72.40
74368;DHT22;64991;41.090;-8.118;2023-12-20T03:08:27;14.00;72.80
74368;DHT22;64991;41.090;-8.118;2023-12-20T03:13:32;14.00;72.80
74368;DHT22;64991;41.090;-8.118;2023-12-20T03:18:36;14.00;72.70
74368;DHT22;64991;41.090;-8.118;2023-12-20T03:23:41;14.10;72.70
74368;DHT22;64991;41.090;-8.118;2023-12-20T03:28:46;14.00;72.30
74368;DHT22;64991;41.090;-8.118;2023-12-20T03:33:50;14.00;72.70
74368;DHT22;64991;41.090;-8.118;2023-12-20T03:38:57;13.90;72.50
74368;DHT22;64991;41.090;-8.118;2023-12-20T03:44:01;14.00;72.70
74368;DHT22;64991;41.090;-8.118;2023-12-20T03:49:04;13.90;73.00
74368;DHT22;64991;41.090;-8.118;2023-12-20T03:54:09;13.90;72.70
74368;DHT22;64991;41.090;-8.118;2023-12-20T03:59:13;14.00;72.80
74368;DHT22;64991;41.090;-8.118;2023-12-20T04:04:17;14.00;73.10
74368;DHT22;64991;41.090;-8.118;2023-12-20T04:09:23;13.90;72.90
74368;DHT22;64991;41.090;-8.118;2023-12-20T04:14:27;14.00;72.80
74368;DHT22;64991;41.090;-8.118;2023-12-20T04:19:30;13.90;73.00
74368;DHT22;64991;41.090;-8.118;2023-12-20T04:24:35;13.90;73.10
74368;DHT22;64991;41.090;-8.118;2023-12-20T04:29:39;13.90;73.20
74368;DHT22;64991;41.090;-8.118;2023-12-20T04:34:43;13.90;73.00
74368;DHT22;64991;41.090;-8.118;2023-12-20T04:39:48;13.90;72.90
74368;DHT22;64991;41.090;-8.118;2023-12-20T04:44:52;13.90;73.10
74368;DHT22;64991;41.090;-8.118;2023-12-20T04:49:55;13.90;73.10
74368;DHT22;64991;41.090;-8.118;2023-12-20T04:55:01;13.90;73.30
74368;DHT22;64991;41.090;-8.118;2023-12-20T05:00:05;14.00;73.00
74368;DHT22;64991;41.090;-8.118;2023-12-20T05:05:10;13.90;73.10
74368;DHT22;64991;41.090;-8.118;2023-12-20T05:10:16;13.90;73.30
74368;DHT22;64991;41.090;-8.118;2023-12-20T05:15:19;13.80;73.40
74368;DHT22;64991;41.090;-8.118;2023-12-20T05:20:23;13.90;73.40
74368;DHT22;64991;41.090;-8.118;2023-12-20T05:25:28;13.90;73.40
74368;DHT22;64991;41.090;-8.118;2023-12-20T05:30:32;13.90;73.40
74368;DHT22;64991;41.090;-8.118;2023-12-20T05:35:36;13.80;73.40
74368;DHT22;64991;41.090;-8.118;2023-12-20T05:40:42;14.00;73.40
74368;DHT22;64991;41.090;-8.118;2023-12-20T05:45:46;13.80;73.60
74368;DHT22;64991;41.090;-8.118;2023-12-20T05:50:49;13.90;73.30
74368;DHT22;64991;41.090;-8.118;2023-12-20T05:55:55;13.90;73.40
74368;DHT22;64991;41.090;-8.118;2023-12-20T06:00:58;13.90;73.60
74368;DHT22;64991;41.090;-8.118;2023-12-20T06:06:04;13.90;73.60
74368;DHT22;64991;41.090;-8.118;2023-12-20T06:11:19;13.90;73.50
74368;DHT22;64991;41.090;-8.118;2023-12-20T06:16:22;13.90;73.60
74368;DHT22;64991;41.090;-8.118;2023-12-20T06:21:26;13.80;73.60
74368;DHT22;64991;41.090;-8.118;2023-12-20T06:26:31;13.80;73.50
74368;DHT22;64991;41.090;-8.118;2023-12-20T06:31:35;13.80;73.70
74368;DHT22;64991;41.090;-8.118;2023-12-20T06:36:39;13.90;74.00
74368;DHT22;64991;41.090;-8.118;2023-12-20T06:41:44;13.80;73.80
74368;DHT22;64991;41.090;-8.118;2023-12-20T06:46:48;13.80;73.90
74368;DHT22;64991;41.090;-8.118;2023-12-20T06:51:52;13.80;73.90
74368;DHT22;64991;41.090;-8.118;2023-12-20T06:56:57;13.90;74.10
74368;DHT22;64991;41.090;-8.118;2023-12-20T07:02:01;13.90;74.20
74368;DHT22;64991;41.090;-8.118;2023-12-20T07:07:05;13.90;74.00
74368;DHT22;64991;41.090;-8.118;2023-12-20T07:12:11;13.90;73.90
74368;DHT22;64991;41.090;-8.118;2023-12-20T07:17:14;13.80;74.00
74368;DHT22;64991;41.090;-8.118;2023-12-20T07:22:18;13.80;73.90
74368;DHT22;64991;41.090;-8.118;2023-12-20T07:27:24;13.80;74.00
74368;DHT22;64991;41.090;-8.118;2023-12-20T07:32:27;13.80;74.10
74368;DHT22;64991;41.090;-8.118;2023-12-20T07:37:31;13.90;73.80
74368;DHT22;64991;41.090;-8.118;2023-12-20T07:42:37;13.80;74.00
74368;DHT22;64991;41.090;-8.118;2023-12-20T07:47:40;13.80;74.20
74368;DHT22;64991;41.090;-8.118;2023-12-20T07:52:44;13.80;73.90
74368;DHT22;64991;41.090;-8.118;2023-12-20T07:57:49;13.80;74.20
74368;DHT22;64991;41.090;-8.118;2023-12-20T08:02:53;13.80;74.00
74368;DHT22;64991;41.090;-8.118;2023-12-20T08:07:57;13.70;74.20
74368;DHT22;64991;41.090;-8.118;2023-12-20T08:13:02;13.70;74.20
74368;DHT22;64991;41.090;-8.118;2023-12-20T08:18:06;13.70;74.20
74368;DHT22;64991;41.090;-8.118;2023-12-20T08:23:10;13.80;74.30
74368;DHT22;64991;41.090;-8.118;2023-12-20T08:28:16;13.80;74.10
74368;DHT22;64991;41.090;-8.118;2023-12-20T08:33:19;13.70;74.20
74368;DHT22;64991;41.090;-8.118;2023-12-20T08:38:23;13.80;74.30
74368;DHT22;64991;41.090;-8.118;2023-12-20T08:43:28;13.80;74.20
74368;DHT22;64991;41.090;-8.118;2023-12-20T08:48:32;13.80;74.30
74368;DHT22;64991;41.090;-8.118;2023-12-20T08:53:36;13.70;74.20
74368;DHT22;64991;41.090;-8.118;2023-12-20T08:58:41;13.70;74.40
74368;DHT22;64991;41.090;-8.118;2023-12-20T09:03:45;13.70;74.10
74368;DHT22;64991;41.090;-8.118;2023-12-20T09:08:49;13.70;74.40
74368;DHT22;64991;41.090;-8.118;2023-12-20T09:13:54;13.80;74.50
74368;DHT22;64991;41.090;-8.118;2023-12-20T09:18:58;13.70;74.50
74368;DHT22;64991;41.090;-8.118;2023-12-20T09:24:02;13.80;74.50
74368;DHT22;64991;41.090;-8.118;2023-12-20T09:29:07;13.70;74.30
74368;DHT22;64991;41.090;-8.118;2023-12-20T09:34:14;13.70;74.50
74368;DHT22;64991;41.090;-8.118;2023-12-20T09:39:20;13.70;74.50
74368;DHT22;64991;41.090;-8.118;2023-12-20T09:44:27;13.70;74.60
74368;DHT22;64991;41.090;-8.118;2023-12-20T09:49:32;13.70;74.50
74368;DHT22;64991;41.090;-8.118;2023-12-20T09:54:36;13.80;74.60
74368;DHT22;64991;41.090;-8.118;2023-12-20T09:59:42;13.80;74.60
74368;DHT22;64991;41.090;-8.118;2023-12-20T10:04:46;13.70;74.70
74368;DHT22;64991;41.090;-8.118;2023-12-20T10:09:51;13.70;74.60
74368;DHT22;64991;41.090;-8.118;2023-12-20T10:14:59;13.80;74.90
74368;DHT22;64991;41.090;-8.118;2023-12-20T10:20:03;13.80;74.60
74368;DHT22;64991;41.090;-8.118;2023-12-20T10:25:12;13.80;74.70
74368;DHT22;64991;41.090;-8.118;2023-12-20T10:30:17;13.70;74.70
74368;DHT22;64991;41.090;-8.118;2023-12-20T10:35:21;13.70;75.00
74368;DHT22;64991;41.090;-8.118;2023-12-20T10:40:25;13.80;74.80
74368;DHT22;64991;41.090;-8.118;2023-12-20T10:45:31;13.70;74.80
74368;DHT22;64991;41.090;-8.118;2023-12-20T10:50:35;13.70;75.00
74368;DHT22;64991;41.090;-8.118;2023-12-20T10:55:40;13.70;75.00
74368;DHT22;64991;41.090;-8.118;2023-12-20T11:00:47;13.70;74.90
74368;DHT22;64991;41.090;-8.118;2023-12-20T11:05:52;13.70;75.00
74368;DHT22;64991;41.090;-8.118;2023-12-20T11:10:59;13.70;74.80
74368;DHT22;64991;41.090;-8.118;2023-12-20T11:16:09;13.60;75.00
74368;DHT22;64991;41.090;-8.118;2023-12-20T11:21:13;13.70;75.10
74368;DHT22;64991;41.090;-8.118;2023-12-20T11:26:18;13.70;75.00
74368;DHT22;64991;41.090;-8.118;2023-12-20T11:31:27;13.70;75.10
74368;DHT22;64991;41.090;-8.118;2023-12-20T11:36:32;13.70;75.00
74368;DHT22;64991;41.090;-8.118;2023-12-20T11:41:36;13.70;75.40
74368;DHT22;64991;41.090;-8.118;2023-12-20T11:46:41;13.70;75.40
74368;DHT22;64991;41.090;-8.118;2023-12-20T11:51:45;13.80;75.40
74368;DHT22;64991;41.090;-8.118;2023-12-20T11:56:48;13.70;75.20
74368;DHT22;64991;41.090;-8.118;2023-12-20T12:01:54;13.70;75.40
74368;DHT22;64991;41.090;-8.118;2023-12-20T12:07:02;13.70;75.40
74368;DHT22;64991;41.090;-8.118;2023-12-20T12:12:06;13.70;75.50
74368;DHT22;64991;41.090;-8.118;2023-12-20T12:17:16;13.70;75.50
74368;DHT22;64991;41.090;-8.118;2023-12-20T12:22:19;13.70;75.40
74368;DHT22;64991;41.090;-8.118;2023-12-20T12:27:28;13.50;75.60
74368;DHT22;64991;41.090;-8.118;2023-12-20T12:32:34;13.60;75.60
74368;DHT22;64991;41.090;-8.118;2023-12-20T12:37:39;13.60;75.60
74368;DHT22;64991;41.090;-8.118;2023-12-20T12:42:44;13.70;75.90
74368;DHT22;64991;41.090;-8.118;2023-12-20T12:47:50;13.60;75.70
74368;DHT22;64991;41.090;-8.118;2023-12-20T12:52:55;13.60;75.70
74368;DHT22;64991;41.090;-8.118;2023-12-20T12:57:58;13.60;75.90
74368;DHT22;64991;41.090;-8.118;2023-12-20T13:03:04;13.60;76.00
74368;DHT22;64991;41.090;-8.118;2023-12-20T13:08:08;13.60;75.80
74368;DHT22;64991;41.090;-8.118;2023-12-20T13:13:14;13.60;75.90
74368;DHT22;64991;41.090;-8.118;2023-12-20T13:18:19;13.70;76.10
74368;DHT22;64991;41.090;-8.118;2023-12-20T13:23:23;13.60;75.90
74368;DHT22;64991;41.090;-8.118;2023-12-20T13:28:27;13.70;76.00
74368;DHT22;64991;41.090;-8.118;2023-12-20T13:33:32;13.60;76.00
74368;DHT22;64991;41.090;-8.118;2023-12-20T13:38:36;13.60;75.90
74368;DHT22;64991;41.090;-8.118;2023-12-20T13:43:40;13.70;76.10
74368;DHT22;64991;41.090;-8.118;2023-12-20T13:48:46;13.70;76.20
74368;DHT22;64991;41.090;-8.118;2023-12-20T13:53:50;13.70;76.10
74368;DHT22;64991;41.090;-8.118;2023-12-20T13:58:53;13.70;76.20
74368;DHT22;64991;41.090;-8.118;2023-12-20T14:03:59;13.70;76.10
74368;DHT22;64991;41.090;-8.118;2023-12-20T14:09:03;13.70;76.20
74368;DHT22;64991;41.090;-8.118;2023-12-20T14:14:07;13.80;76.20
74368;DHT22;64991;41.090;-8.118;2023-12-20T14:19:12;13.70;76.30
74368;DHT22;64991;41.090;-8.118;2023-12-20T14:24:17;13.70;76.20
74368;DHT22;64991;41.090;-8.118;2023-12-20T14:29:20;13.70;76.20
74368;DHT22;64991;41.090;-8.118;2023-12-20T14:34:28;13.70;76.20
74368;DHT22;64991;41.090;-8.118;2023-12-20T14:39:32;13.70;76.30
74368;DHT22;64991;41.090;-8.118;2023-12-20T14:44:36;13.70;76.40
74368;DHT22;64991;41.090;-8.118;2023-12-20T14:49:41;13.80;76.30
74368;DHT22;64991;41.090;-8.118;2023-12-20T14:54:45;13.70;76.40
74368;DHT22;64991;41.090;-8.118;2023-12-20T14:59:49;13.70;76.50
74368;DHT22;64991;41.090;-8.118;2023-12-20T15:04:54;13.70;76.60
74368;DHT22;64991;41.090;-8.118;2023-12-20T15:09:57;13.70;76.50
74368;DHT22;64991;41.090;-8.118;2023-12-20T15:15:01;13.70;76.50
74368;DHT22;64991;41.090;-8.118;2023-12-20T15:20:08;13.70;76.70
74368;DHT22;64991;41.090;-8.118;2023-12-20T15:25:13;13.70;76.70
74368;DHT22;64991;41.090;-8.118;2023-12-20T15:30:23;13.70;76.70
74368;DHT22;64991;41.090;-8.118;2023-12-20T15:35:28;13.70;76.80
74368;DHT22;64991;41.090;-8.118;2023-12-20T15:40:32;13.70;76.90
74368;DHT22;64991;41.090;-8.118;2023-12-20T15:45:36;13.70;76.80
74368;DHT22;64991;41.090;-8.118;2023-12-20T15:50:41;13.70;76.90
74368;DHT22;64991;41.090;-8.118;2023-12-20T15:55:45;13.70;76.90
74368;DHT22;64991;41.090;-8.118;2023-12-20T16:00:49;13.70;76.90
74368;DHT22;64991;41.090;-8.118;2023-12-20T16:05:54;13.70;76.80
74368;DHT22;64991;41.090;-8.118;2023-12-20T16:11:00;13.70;77.00
74368;DHT22;64991;41.090;-8.118;2023-12-20T16:16:04;13.60;77.00
74368;DHT22;64991;41.090;-8.118;2023-12-20T16:21:10;13.70;77.10
74368;DHT22;64991;41.090;-8.118;2023-12-20T16:26:15;13.70;77.00
74368;DHT22;64991;41.090;-8.118;2023-12-20T16:31:18;13.70;77.10
74368;DHT22;64991;41.090;-8.118;2023-12-20T16:36:23;13.60;77.20
74368;DHT22;64991;41.090;-8.118;2023-12-20T16:41:27;13.60;77.10
74368;DHT22;64991;41.090;-8.118;2023-12-20T16:46:31;13.60;77.10
74368;DHT22;64991;41.090;-8.118;2023-12-20T16:51:36;13.70;77.20
74368;DHT22;64991;41.090;-8.118;2023-12-20T16:56:40;13.70;77.20
74368;DHT22;64991;41.090;-8.118;2023-12-20T17:01:44;13.70;77.00
74368;DHT22;64991;41.090;-8.118;2023-12-20T17:06:49;13.70;77.20
74368;DHT22;64991;41.090;-8.118;2023-12-20T17:11:53;13.60;77.10
74368;DHT22;64991;41.090;-8.118;2023-12-20T17:16:57;13.60;77.30
74368;DHT22;64991;41.090;-8.118;2023-12-20T17:22:03;13.70;77.20
74368;DHT22;64991;41.090;-8.118;2023-12-20T17:27:09;13.60;77.20
74368;DHT22;64991;41.090;-8.118;2023-12-20T17:32:13;13.70;77.30
74368;DHT22;64991;41.090;-8.118;2023-12-20T17:37:18;13.60;77.30
74368;DHT22;64991;41.090;-8.118;2023-12-20T17:42:22;13.70;77.30
74368;DHT22;64991;41.090;-8.118;2023-12-20T17:47:26;13.60;77.30
74368;DHT22;64991;41.090;-8.118;2023-12-20T17:52:31;13.60;77.20
74368;DHT22;64991;41.090;-8.118;2023-12-20T17:57:35;13.60;77.30
74368;DHT22;64991;41.090;-8.118;2023-12-20T18:02:38;13.60;77.20
74368;DHT22;64991;41.090;-8.118;2023-12-20T18:07:44;13.60;77.30
74368;DHT22;64991;41.090;-8.118;2023-12-20T18:12:48;13.60;77.30
74368;DHT22;64991;41.090;-8.118;2023-12-20T18:17:52;13.60;77.20
74368;DHT22;64991;41.090;-8.118;2023-12-20T18:22:57;13.70;77.10
74368;DHT22;64991;41.090;-8.118;2023-12-20T18:28:01;13.70;77.20
74368;DHT22;64991;41.090;-8.118;2023-12-20T18:33:05;13.60;77.20
74368;DHT22;64991;41.090;-8.118;2023-12-20T18:38:10;13.60;77.20
74368;DHT22;64991;41.090;-8.118;2023-12-20T18:43:15;13.70;77.10
74368;DHT22;64991;41.090;-8.118;2023-12-20T18:48:18;13.60;77.20
74368;DHT22;64991;41.090;-8.118;2023-12-20T18:53:24;13.60;77.30
74368;DHT22;64991;41.090;-8.118;2023-12-20T18:58:28;13.70;77.20
74368;DHT22;64991;41.090;-8.118;2023-12-20T19:03:33;13.60;77.20
74368;DHT22;64991;41.090;-8.118;2023-12-20T19:08:38;13.70;77.10
74368;DHT22;64991;41.090;-8.118;2023-12-20T19:13:43;13.60;77.20
74368;DHT22;64991;41.090;-8.118;2023-12-20T19:18:48;13.60;77.20
74368;DHT22;64991;41.090;-8.118;2023-12-20T19:23:53;13.70;77.20
74368;DHT22;64991;41.090;-8.118;2023-12-20T19:28:57;13.70;77.10
74368;DHT22;64991;41.090;-8.118;2023-12-20T19:34:01;13.70;77.20
74368;DHT22;64991;41.090;-8.118;2023-12-20T19:39:06;13.60;77.00
74368;DHT22;64991;41.090;-8.118;2023-12-20T19:44:10;13.60;77.20
74368;DHT22;64991;41.090;-8.118;2023-12-20T19:49:18;13.70;77.20
74368;DHT22;64991;41.090;-8.118;2023-12-20T19:54:24;13.70;77.00
74368;DHT22;64991;41.090;-8.118;2023-12-20T19:59:28;13.70;77.20
74368;DHT22;64991;41.090;-8.118;2023-12-20T20:04:31;13.70;77.00
74368;DHT22;64991;41.090;-8.118;2023-12-20T20:09:37;13.70;77.30
74368;DHT22;64991;41.090;-8.118;2023-12-20T20:14:41;13.70;77.10
74368;DHT22;64991;41.090;-8.118;2023-12-20T20:19:45;13.70;77.10
74368;DHT22;64991;41.090;-8.118;2023-12-20T20:24:50;13.70;77.20
74368;DHT22;64991;41.090;-8.118;2023-12-20T20:29:53;13.60;77.00
74368;DHT22;64991;41.090;-8.118;2023-12-20T20:34:58;13.70;77.20
74368;DHT22;64991;41.090;-8.118;2023-12-20T20:40:03;13.70;77.30
74368;DHT22;64991;41.090;-8.118;2023-12-20T20:45:08;13.60;77.10
74368;DHT22;64991;41.090;-8.118;2023-12-20T20:50:12;13.70;77.30
74368;DHT22;64991;41.090;-8.118;2023-12-20T20:55:18;13.60;77.10
74368;DHT22;64991;41.090;-8.118;2023-12-20T21:00:21;13.60;77.10
74368;DHT22;64991;41.090;-8.118;2023-12-20T21:05:26;13.60;77.20
74368;DHT22;64991;41.090;-8.118;2023-12-20T21:10:32;13.60;77.20
74368;DHT22;64991;41.090;-8.118;2023-12-20T21:15:35;13.60;77.10
74368;DHT22;64991;41.090;-8.118;2023-12-20T21:20:39;13.60;77.20
74368;DHT22;64991;41.090;-8.118;2023-12-20T21:25:44;13.60;77.00
74368;DHT22;64991;41.090;-8.118;2023-12-20T21:30:48;13.60;77.50
74368;DHT22;64991;41.090;-8.118;2023-12-20T21:35:52;13.60;77.30
74368;DHT22;64991;41.090;-8.118;2023-12-20T21:40:58;13.50;77.30
74368;DHT22;64991;41.090;-8.118;2023-12-20T21:46:02;13.60;77.20
74368;DHT22;64991;41.090;-8.118;2023-12-20T21:51:05;13.60;77.20
74368;DHT22;64991;41.090;-8.118;2023-12-20T21:56:11;13.50;77.30
74368;DHT22;64991;41.090;-8.118;2023-12-20T22:01:14;13.60;77.30
74368;DHT22;64991;41.090;-8.118;2023-12-20T22:06:18;13.60;77.30
74368;DHT22;64991;41.090;-8.118;2023-12-20T22:11:24;13.60;77.30
74368;DHT22;64991;41.090;-8.118;2023-12-20T22:16:27;13.60;77.30
74368;DHT22;64991;41.090;-8.118;2023-12-20T22:21:32;13.60;77.20
74368;DHT22;64991;41.090;-8.118;2023-12-20T22:26:37;13.60;77.40
74368;DHT22;64991;41.090;-8.118;2023-12-20T22:31:40;13.60;77.30
74368;DHT22;64991;41.090;-8.118;2023-12-20T22:36:44;13.60;77.30
74368;DHT22;64991;41.090;-8.118;2023-12-20T22:41:49;13.60;77.40
74368;DHT22;64991;41.090;-8.118;2023-12-20T22:46:53;13.60;77.40
74368;DHT22;64991;41.090;-8.118;2023-12-20T22:51:57;13.50;77.20
74368;DHT22;64991;41.090;-8.118;2023-12-20T22:57:02;13.50;77.30
74368;DHT22;64991;41.090;-8.118;2023-12-20T23:02:06;13.60;77.20
74368;DHT22;64991;41.090;-8.118;2023-12-20T23:07:10;13.50;77.20
74368;DHT22;64991;41.090;-8.118;2023-12-20T23:12:15;13.60;77.30
74368;DHT22;64991;41.090;-8.118;2023-12-20T23:17:19;13.50;77.20
74368;DHT22;64991;41.090;-8.118;2023-12-20T23:22:24;13.50;77.30
74368;DHT22;64991;41.090;-8.118;2023-12-20T23:27:29;13.60;77.30
74368;DHT22;64991;41.090;-8.118;2023-12-20T23:32:33;13.50;77.30
74368;DHT22;64991;41.090;-8.118;2023-12-20T23:37:37;13.60;77.30
74368;DHT22;64991;41.090;-8.118;2023-12-20T23:42:42;13.50;77.20
74368;DHT22;64991;41.090;-8.118;2023-12-20T23:47:46;13.60;77.30
74368;DHT22;64991;41.090;-8.118;2023-12-20T23:52:50;13.60;77.20
74368;DHT22;64991;41.090;-8.118;2023-12-20T23:57:55;13.60;77.40
